^^
Saratoga-Weather Station Historical Data
Daily Summary for April 20, 2020 Units:  Both    English   Metric
Daily Weekly Monthly Yearly Custom
  High: Low: Average:
Temperature: 69.8 °F /  21 °C 62.8 °F /  17.1 °C 66.4 °F /  19.1 °C
Dew Point: 51.6 °F /  10.9 °C 49.8 °F /  9.9 °C 50.9 °F /  10.5 °C
Humidity: 66% 50% 58%
Wind Speed: 4.9mph /  7.9km/h - 0.7mph /  1.2km/h
Wind Gust: 5mph /  8km/h - -
Wind- - SW
Pressure: 30 in /  1014.2 hPa 29.9 in /  1013.9 hPa -
Precipitation: 0 in /  0.0 mm    
Historical Graphs
 
 
Tabular Data for April 20, 2020
Time Temperature Dew Point Pressure Wind Wind Speed Wind Gust Humidity Rainfall Rate (Hourly) solar
00:00 69.8 °F /  21 °C 50.4 °F /  10.2 °C 30in /  1014.2hPa SW 2mph /  3.2km/h 2mph /  3.2km/h 50% 0in /  0.0mm 0 W/m2
00:05 69.4 °F /  20.8 °C 50 °F /  10 °C 30in /  1014.2hPa SW 0.9mph /  1.4km/h 2mph /  3.2km/h 50% 0in /  0.0mm 0 W/m2
00:11 69.3 °F /  20.7 °C 49.8 °F /  9.9 °C 30in /  1014.2hPa SW 0.9mph /  1.4km/h 3mph /  4.8km/h 50% 0in /  0.0mm 0 W/m2
00:16 69.1 °F /  20.6 °C 50.2 °F /  10.1 °C 30in /  1014.2hPa WSW 4.9mph /  7.9km/h 5mph /  8km/h 51% 0in /  0.0mm 0 W/m2
00:21 69.1 °F /  20.6 °C 50.2 °F /  10.1 °C 30in /  1014.2hPa SW 2.9mph /  4.7km/h 3mph /  4.8km/h 51% 0in /  0.0mm 0 W/m2
00:26 69.3 °F /  20.7 °C 49.8 °F /  9.9 °C 30in /  1014.2hPa SW 2mph /  3.2km/h 5mph /  8km/h 50% 0in /  0.0mm 0 W/m2
00:31 69.4 °F /  20.8 °C 50 °F /  10 °C 30in /  1014.2hPa SW 0.9mph /  1.4km/h 3mph /  4.8km/h 50% 0in /  0.0mm 0 W/m2
00:36 69.6 °F /  20.9 °C 50.2 °F /  10.1 °C 30in /  1014.2hPa Calm   1mph /  1.6km/h 50% 0in /  0.0mm 0 W/m2
00:41 69.6 °F /  20.9 °C 50.7 °F /  10.4 °C 30in /  1014.2hPa West 2mph /  3.2km/h 3mph /  4.8km/h 51% 0in /  0.0mm 0 W/m2
00:46 69.4 °F /  20.8 °C 50.5 °F /  10.3 °C 30in /  1014.2hPa Calm     51% 0in /  0.0mm 0 W/m2
00:51 69.1 °F /  20.6 °C 50.2 °F /  10.1 °C 30in /  1014.2hPa SSW 0.9mph /  1.4km/h 3mph /  4.8km/h 51% 0in /  0.0mm 0 W/m2
00:56 68.9 °F /  20.5 °C 50 °F /  10 °C 30in /  1014.2hPa Calm   1mph /  1.6km/h 51% 0in /  0.0mm 0 W/m2
01:01 68.7 °F /  20.4 °C 50.9 °F /  10.5 °C 30in /  1014.2hPa SSW 0.9mph /  1.4km/h 2mph /  3.2km/h 53% 0in /  0.0mm 0 W/m2
01:06 68.5 °F /  20.3 °C 50.7 °F /  10.4 °C 30in /  1014.2hPa SSW 0.9mph /  1.4km/h 2mph /  3.2km/h 53% 0in /  0.0mm 0 W/m2
01:11 68.4 °F /  20.2 °C 50.5 °F /  10.3 °C 30in /  1014.2hPa SSW 2mph /  3.2km/h 3mph /  4.8km/h 53% 0in /  0.0mm 0 W/m2
01:16 68.4 °F /  20.2 °C 50.5 °F /  10.3 °C 30in /  1014.2hPa Calm   1mph /  1.6km/h 53% 0in /  0.0mm 0 W/m2
01:21 68.2 °F /  20.1 °C 50.4 °F /  10.2 °C 30in /  1014.2hPa WSW 0.9mph /  1.4km/h 2mph /  3.2km/h 53% 0in /  0.0mm 0 W/m2
01:26 68.4 °F /  20.2 °C 50.5 °F /  10.3 °C 30in /  1014.2hPa WSW 0.9mph /  1.4km/h 3mph /  4.8km/h 53% 0in /  0.0mm 0 W/m2
01:31 68.4 °F /  20.2 °C 50.5 °F /  10.3 °C 30in /  1014.2hPa West 2.9mph /  4.7km/h 4mph /  6.4km/h 53% 0in /  0.0mm 0 W/m2
01:36 68.5 °F /  20.3 °C 50.7 °F /  10.4 °C 30in /  1014.2hPa WNW 0.9mph /  1.4km/h 2mph /  3.2km/h 53% 0in /  0.0mm 0 W/m2
01:41 68.5 °F /  20.3 °C 50.7 °F /  10.4 °C 30in /  1014.2hPa Calm   1mph /  1.6km/h 53% 0in /  0.0mm 0 W/m2
01:46 68.4 °F /  20.2 °C 51.1 °F /  10.6 °C 30in /  1014.2hPa WSW 0.9mph /  1.4km/h 1mph /  1.6km/h 54% 0in /  0.0mm 0 W/m2
01:51 68.2 °F /  20.1 °C 51.4 °F /  10.8 °C 30in /  1014.2hPa WSW 2mph /  3.2km/h 2mph /  3.2km/h 55% 0in /  0.0mm 0 W/m2
01:56 68 °F /  20 °C 51.3 °F /  10.7 °C 30in /  1014.2hPa South 0.9mph /  1.4km/h 2mph /  3.2km/h 55% 0in /  0.0mm 0 W/m2
02:01 67.8 °F /  19.9 °C 51.1 °F /  10.6 °C 30in /  1014.2hPa SSW 0.9mph /  1.4km/h 2mph /  3.2km/h 55% 0in /  0.0mm 0 W/m2
02:06 67.8 °F /  19.9 °C 50.5 °F /  10.3 °C 30in /  1014.2hPa SSW 0.9mph /  1.4km/h 2mph /  3.2km/h 54% 0in /  0.0mm 0 W/m2
02:11 67.6 °F /  19.8 °C 50.4 °F /  10.2 °C 30in /  1014.2hPa WSW 2.9mph /  4.7km/h 4mph /  6.4km/h 54% 0in /  0.0mm 0 W/m2
02:16 68 °F /  20 °C 50.2 °F /  10.1 °C 30in /  1014.2hPa SW 0.9mph /  1.4km/h 3mph /  4.8km/h 53% 0in /  0.0mm 0 W/m2
02:21 68.2 °F /  20.1 °C 51.4 °F /  10.8 °C 30in /  1014.2hPa SW 2mph /  3.2km/h 4mph /  6.4km/h 55% 0in /  0.0mm 0 W/m2
02:26 68 °F /  20 °C 50.7 °F /  10.4 °C 30in /  1014.2hPa Calm   3mph /  4.8km/h 54% 0in /  0.0mm 0 W/m2
02:31 67.8 °F /  19.9 °C 51.1 °F /  10.6 °C 30in /  1014.2hPa SW 0.9mph /  1.4km/h 2mph /  3.2km/h 55% 0in /  0.0mm 0 W/m2
02:36 67.5 °F /  19.7 °C 51.3 °F /  10.7 °C 30in /  1014.2hPa SW 0.9mph /  1.4km/h 3mph /  4.8km/h 56% 0in /  0.0mm 0 W/m2
02:41 67.1 °F /  19.5 °C 51.4 °F /  10.8 °C 30in /  1014.2hPa SW 0.9mph /  1.4km/h 2mph /  3.2km/h 57% 0in /  0.0mm 0 W/m2
02:47 66.7 °F /  19.3 °C 51.1 °F /  10.6 °C 30in /  1014.2hPa Calm   1mph /  1.6km/h 57% 0in /  0.0mm 0 W/m2
02:52 66.6 °F /  19.2 °C 51.3 °F /  10.7 °C 29.9in /  1013.9hPa Calm   2mph /  3.2km/h 58% 0in /  0.0mm 0 W/m2
02:57 66.2 °F /  19 °C 51.4 °F /  10.8 °C 29.9in /  1013.9hPa Calm     59% 0in /  0.0mm 0 W/m2
03:02 65.8 °F /  18.8 °C 51.1 °F /  10.6 °C 29.9in /  1013.9hPa Calm     59% 0in /  0.0mm 0 W/m2
03:07 65.5 °F /  18.6 °C 51.3 °F /  10.7 °C 29.9in /  1013.9hPa Calm     60% 0in /  0.0mm 0 W/m2
03:12 64.9 °F /  18.3 °C 51.1 °F /  10.6 °C 29.9in /  1013.9hPa Calm     61% 0in /  0.0mm 0 W/m2
03:17 64.6 °F /  18.1 °C 50.9 °F /  10.5 °C 29.9in /  1013.9hPa Calm     61% 0in /  0.0mm 0 W/m2
03:22 64.2 °F /  17.9 °C 50.9 °F /  10.5 °C 29.9in /  1013.9hPa Calm   2mph /  3.2km/h 62% 0in /  0.0mm 0 W/m2
03:27 63.9 °F /  17.7 °C 51.1 °F /  10.6 °C 29.9in /  1013.9hPa Calm     63% 0in /  0.0mm 0 W/m2
03:32 63.7 °F /  17.6 °C 50.9 °F /  10.5 °C 29.9in /  1013.9hPa SW 0.9mph /  1.4km/h 1mph /  1.6km/h 63% 0in /  0.0mm 0 W/m2
03:37 63.3 °F /  17.4 °C 51.4 °F /  10.8 °C 29.9in /  1013.9hPa SW 0.9mph /  1.4km/h 1mph /  1.6km/h 65% 0in /  0.0mm 0 W/m2
03:42 63.1 °F /  17.3 °C 51.3 °F /  10.7 °C 29.9in /  1013.9hPa Calm   1mph /  1.6km/h 65% 0in /  0.0mm 0 W/m2
03:47 63.1 °F /  17.3 °C 51.3 °F /  10.7 °C 29.9in /  1013.9hPa SW 0.9mph /  1.4km/h 1mph /  1.6km/h 65% 0in /  0.0mm 0 W/m2
03:52 63 °F /  17.2 °C 51.1 °F /  10.6 °C 29.9in /  1013.9hPa Calm     65% 0in /  0.0mm 0 W/m2
03:57 62.8 °F /  17.1 °C 51.3 °F /  10.7 °C 29.9in /  1013.9hPa Calm     66% 0in /  0.0mm 0 W/m2
04:02 62.8 °F /  17.1 °C 51.3 °F /  10.7 °C 29.9in /  1013.9hPa Calm     66% 0in /  0.0mm 0 W/m2
04:07 63 °F /  17.2 °C 51.1 °F /  10.6 °C 29.9in /  1013.9hPa SW 2mph /  3.2km/h 2mph /  3.2km/h 65% 0in /  0.0mm 0 W/m2
04:12 63.5 °F /  17.5 °C 51.1 °F /  10.6 °C 29.9in /  1013.9hPa Calm   1mph /  1.6km/h 64% 0in /  0.0mm 0 W/m2
04:17 63.9 °F /  17.7 °C 50.5 °F /  10.3 °C 30in /  1014.2hPa Calm   3mph /  4.8km/h 62% 0in /  0.0mm 0 W/m2
04:22 64.2 °F /  17.9 °C 50.9 °F /  10.5 °C 30in /  1014.2hPa SW 2mph /  3.2km/h 3mph /  4.8km/h 62% 0in /  0.0mm 0 W/m2
04:27 64.4 °F /  18 °C 50.7 °F /  10.4 °C 30in /  1014.2hPa Calm   2mph /  3.2km/h 61% 0in /  0.0mm 0 W/m2
04:32 64.6 °F /  18.1 °C 50.9 °F /  10.5 °C 30in /  1014.2hPa Calm   3mph /  4.8km/h 61% 0in /  0.0mm 0 W/m2
04:37 64.8 °F /  18.2 °C 51.1 °F /  10.6 °C 30in /  1014.2hPa WSW 0.9mph /  1.4km/h 2mph /  3.2km/h 61% 0in /  0.0mm 0 W/m2
04:42 64.8 °F /  18.2 °C 51.1 °F /  10.6 °C 30in /  1014.2hPa Calm   1mph /  1.6km/h 61% 0in /  0.0mm 0 W/m2
04:47 64.8 °F /  18.2 °C 51.4 °F /  10.8 °C 30in /  1014.2hPa WSW 0.9mph /  1.4km/h 2mph /  3.2km/h 62% 0in /  0.0mm 0 W/m2
04:52 64.6 °F /  18.1 °C 51.3 °F /  10.7 °C 30in /  1014.2hPa SW 0.9mph /  1.4km/h 2mph /  3.2km/h 62% 0in /  0.0mm 0 W/m2
04:58 64.2 °F /  17.9 °C 51.4 °F /  10.8 °C 30in /  1014.2hPa Calm     63% 0in /  0.0mm 0 W/m2
05:03 64 °F /  17.8 °C 51.3 °F /  10.7 °C 30in /  1014.2hPa SW 0.9mph /  1.4km/h 2mph /  3.2km/h 63% 0in /  0.0mm 0 W/m2
05:08 63.9 °F /  17.7 °C 51.1 °F /  10.6 °C 30in /  1014.2hPa Calm   2mph /  3.2km/h 63% 0in /  0.0mm 0 W/m2
05:13 64 °F /  17.8 °C 51.3 °F /  10.7 °C 30in /  1014.2hPa Calm   2mph /  3.2km/h 63% 0in /  0.0mm 0 W/m2
05:18 64 °F /  17.8 °C 51.6 °F /  10.9 °C 30in /  1014.2hPa Calm   1mph /  1.6km/h 64% 0in /  0.0mm 0 W/m2
05:23 64 °F /  17.8 °C 51.6 °F /  10.9 °C 30in /  1014.2hPa Calm   1mph /  1.6km/h 64% 0in /  0.0mm 0 W/m2
05:28 63.9 °F /  17.7 °C 51.4 °F /  10.8 °C 30in /  1014.2hPa Calm   1mph /  1.6km/h 64% 0in /  0.0mm 0 W/m2
05:33 63.9 °F /  17.7 °C 51.4 °F /  10.8 °C 30in /  1014.2hPa Calm   1mph /  1.6km/h 64% 0in /  0.0mm 0 W/m2
05:38 63.7 °F /  17.6 °C 51.6 °F /  10.9 °C 30in /  1014.2hPa Calm   1mph /  1.6km/h 65% 0in /  0.0mm 0 W/m2
05:43 63.5 °F /  17.5 °C 51.4 °F /  10.8 °C 30in /  1014.2hPa Calm     65% 0in /  0.0mm 0 W/m2
Juneau County Weather
Compliments of Weather Underground - 4 mb